| time (UTC) | temp F | wind direction | speed knots | gust knots | rain 1hr in | rain 24hr in | rain mn in | humidity % | barometer mb |
| 20260508025306 | 65 | 177 | 0.9 | 1.7 | 0.00 | 0.00 | 0.00 | 39 | 1009.8 |
| 20260508024802 | 64 | 195 | 0.9 | 5.2 | 0.00 | 0.00 | 0.00 | 39 | 1009.6 |
| 20260508024259 | 65 | 179 | 0.9 | 1.7 | 0.00 | 0.00 | 0.00 | 39 | 1009.5 |
| 20260508023756 | 65 | 167 | 0.0 | 1.7 | 0.00 | 0.00 | 0.00 | 39 | 1009.4 |
| 20260508023253 | 65 | 161 | 0.0 | 0.9 | 0.00 | 0.00 | 0.00 | 38 | 1009.5 |
| 20260508022749 | 65 | 160 | 0.0 | 0.0 | 0.00 | 0.00 | 0.00 | 37 | 1009.6 |
| 20260508022246 | 65 | 160 | 0.0 | 0.0 | 0.00 | 0.00 | 0.00 | 38 | 1009.4 |
| 20260508021743 | 66 | 160 | 0.0 | 0.0 | 0.00 | 0.00 | 0.00 | 38 | 1009.3 |
| 20260508021238 | 66 | 161 | 0.0 | 0.0 | 0.00 | 0.00 | 0.00 | 37 | 1009.4 |
| 20260508020735 | 66 | 165 | 0.0 | 0.9 | 0.00 | 0.00 | 0.00 | 37 | 1009.0 |
| 20260508020233 | 67 | 159 | 0.0 | 0.9 | 0.00 | 0.00 | 0.00 | 37 | 1009.2 |
| 20260508015729 | 67 | 160 | 0.0 | 0.9 | 0.00 | 0.00 | 0.00 | 35 | 1009.2 |
| 20260508015227 | 68 | 161 | 0.0 | 0.0 | 0.00 | 0.00 | 0.00 | 36 | 1009.3 |
| 20260508014724 | 68 | 162 | 0.0 | 0.0 | 0.00 | 0.00 | 0.00 | 35 | 1009.1 |
| 20260508014220 | 69 | 162 | 0.0 | 0.0 | 0.00 | 0.00 | 0.00 | 34 | 1009.1 |
| 20260508013716 | 70 | 162 | 0.0 | 0.0 | 0.00 | 0.00 | 0.00 | 33 | 1009.0 |
| 20260508013212 | 71 | 163 | 0.0 | 0.0 | 0.00 | 0.00 | 0.00 | 32 | 1009.1 |
| 20260508012711 | 71 | 161 | 0.0 | 0.9 | 0.00 | 0.00 | 0.00 | 31 | 1009.0 |
| 20260508012207 | 71 | 159 | 0.0 | 0.9 | 0.00 | 0.00 | 0.00 | 31 | 1009.0 |
| 20260508011705 | 72 | 158 | 0.0 | 0.0 | 0.00 | 0.00 | 0.00 | 30 | 1009.0 |
| 20260508011203 | 73 | 160 | 0.0 | 0.0 | 0.00 | 0.00 | 0.00 | 29 | 1008.9 |
| 20260508010659 | 74 | 162 | 0.0 | 0.9 | 0.00 | 0.00 | 0.00 | 28 | 1008.8 |
| 20260508010157 | 75 | 160 | 0.0 | 0.0 | 0.00 | 0.00 | 0.00 | 27 | 1008.9 |
| 20260508005654 | 75 | 164 | 0.9 | 0.9 | 0.00 | 0.00 | 0.00 | 27 | 1008.8 |
| 20260508005150 | 76 | 166 | 0.0 | 1.7 | 0.00 | 0.00 | 0.00 | 26 | 1008.8 |
| 20260508004646 | 77 | 173 | 0.0 | 0.9 | 0.00 | 0.00 | 0.00 | 26 | 1008.8 |
| 20260508004143 | 77 | 177 | 0.0 | 0.9 | 0.00 | 0.00 | 0.00 | 25 | 1009.0 |
| 20260508003639 | 78 | 166 | 0.0 | 1.7 | 0.00 | 0.00 | 0.00 | 24 | 1008.9 |
| 20260508003137 | 78 | 233 | 2.6 | 2.6 | 0.00 | 0.00 | 0.00 | 23 | 1008.9 |
| 20260508002633 | 78 | 217 | 1.7 | 7.8 | 0.00 | 0.00 | 0.00 | 24 | 1008.9 |
| 20260508002131 | 79 | 256 | 2.6 | 2.6 | 0.00 | 0.00 | 0.00 | 23 | 1008.8 |
| 20260508001626 | 79 | 180 | 0.9 | 5.2 | 0.00 | 0.00 | 0.00 | 23 | 1008.9 |
| 20260508001122 | 80 | 221 | 2.6 | 2.6 | 0.00 | 0.00 | 0.00 | 23 | 1008.9 |
| 20260508000618 | 79 | 207 | 0.9 | 4.3 | 0.00 | 0.00 | 0.00 | 23 | 1008.9 |
| 20260508000116 | 80 | 309 | 1.7 | 6.1 | 0.00 | 0.00 | 0.00 | 23 | 1008.7 |
| 20260507235613 | 79 | 203 | 1.7 | 5.2 | 0.00 | 0.00 | 0.00 | 23 | 1009.1 |
| 20260507235110 | 80 | 185 | 2.6 | 6.1 | 0.00 | 0.00 | 0.00 | 22 | 1009.0 |
| 20260507234606 | 80 | 186 | 1.7 | 6.1 | 0.00 | 0.00 | 0.00 | 23 | 1009.0 |
| 20260507234103 | 80 | 311 | 2.6 | 7.8 | 0.00 | 0.00 | 0.00 | 22 | 1009.2 |
| 20260507233600 | 80 | 264 | 2.6 | 7.8 | 0.00 | 0.00 | 0.00 | 22 | 1009.1 |
| 20260507233059 | 80 | 256 | 3.5 | 5.2 | 0.00 | 0.00 | 0.00 | 22 | 1009.0 |
| 20260507232554 | 80 | 287 | 0.9 | 2.6 | 0.00 | 0.00 | 0.00 | 23 | 1009.1 |
| 20260507232052 | 80 | 285 | 4.3 | 6.1 | 0.00 | 0.00 | 0.00 | 21 | 1009.0 |
| 20260507231548 | 80 | 305 | 1.7 | 4.3 | 0.00 | 0.00 | 0.00 | 22 | 1009.1 |
| 20260507231045 | 81 | 215 | 1.7 | 4.3 | 0.00 | 0.00 | 0.00 | 22 | 1009.1 |
| 20260507230542 | 81 | 250 | 3.5 | 5.2 | 0.00 | 0.00 | 0.00 | 22 | 1009.0 |
| 20260507230038 | 80 | 295 | 1.7 | 7.0 | 0.00 | 0.00 | 0.00 | 22 | 1009.0 |
| 20260507225533 | 81 | 315 | 1.7 | 6.1 | 0.00 | 0.00 | 0.00 | 22 | 1009.2 |
| 20260507225030 | 80 | 226 | 1.7 | 4.3 | 0.00 | 0.00 | 0.00 | 23 | 1009.2 |
| 20260507224526 | 80 | 319 | 4.3 | 6.1 | 0.00 | 0.00 | 0.00 | 22 | 1009.3 |
| 20260507224022 | 80 | 264 | 4.3 | 6.1 | 0.00 | 0.00 | 0.00 | 22 | 1009.2 |
| 20260507223519 | 80 | 309 | 3.5 | 7.8 | 0.00 | 0.00 | 0.00 | 22 | 1009.1 |
| 20260507223016 | 80 | 193 | 3.5 | 7.0 | 0.00 | 0.00 | 0.00 | 21 | 1009.0 |
| 20260507222513 | 80 | 349 | 6.1 | 9.6 | 0.00 | 0.00 | 0.00 | 21 | 1009.4 |
| 20260507222009 | 81 | 201 | 1.7 | 4.3 | 0.00 | 0.00 | 0.00 | 22 | 1009.2 |
| 20260507221506 | 80 | 287 | 4.3 | 7.0 | 0.00 | 0.00 | 0.00 | 22 | 1009.5 |
| 20260507221003 | 80 | 260 | 3.5 | 7.8 | 0.00 | 0.00 | 0.00 | 22 | 1009.4 |
| 20260507220500 | 80 | 123 | 1.7 | 6.1 | 0.00 | 0.00 | 0.00 | 22 | 1009.5 |
| 20260507215956 | 80 | 315 | 3.5 | 7.0 | 0.00 | 0.00 | 0.00 | 22 | 1009.5 |
| 20260507215453 | 80 | 211 | 2.6 | 8.7 | 0.00 | 0.00 | 0.00 | 22 | 1009.6 |
| 20260507214951 | 80 | 277 | 6.1 | 7.8 | 0.00 | 0.00 | 0.00 | 22 | 1009.6 |
| 20260507214448 | 81 | 196 | 2.6 | 7.8 | 0.00 | 0.00 | 0.00 | 23 | 1009.7 |
| 20260507213943 | 80 | 290 | 4.3 | 6.1 | 0.00 | 0.00 | 0.00 | 22 | 1009.8 |
| 20260507213440 | 80 | 218 | 2.6 | 7.0 | 0.00 | 0.00 | 0.00 | 23 | 1009.8 |
| 20260507212937 | 80 | 264 | 4.3 | 7.0 | 0.00 | 0.00 | 0.00 | 22 | 1009.9 |
| 20260507212433 | 80 | 283 | 5.2 | 6.1 | 0.00 | 0.00 | 0.00 | 22 | 1009.7 |
| 20260507211930 | 80 | 147 | 0.9 | 6.1 | 0.00 | 0.00 | 0.00 | 23 | 1010.2 |
| 20260507211426 | 80 | 221 | 6.1 | 7.8 | 0.00 | 0.00 | 0.00 | 22 | 1010.3 |
| 20260507210923 | 79 | 185 | 0.9 | 6.1 | 0.00 | 0.00 | 0.00 | 24 | 1010.3 |
| 20260507210421 | 79 | 170 | 5.2 | 8.7 | 0.00 | 0.00 | 0.00 | 23 | 1010.5 |
| 20260507205917 | 79 | 214 | 4.3 | 7.0 | 0.00 | 0.00 | 0.00 | 23 | 1010.5 |
| 20260507205415 | 79 | 263 | 6.1 | 11.3 | 0.00 | 0.00 | 0.00 | 22 | 1010.5 |
| 20260507204910 | 79 | 182 | 2.6 | 6.1 | 0.00 | 0.00 | 0.00 | 23 | 1010.6 |
| 20260507204407 | 79 | 253 | 2.6 | 6.1 | 0.00 | 0.00 | 0.00 | 24 | 1010.7 |
| 20260507203905 | 79 | 251 | 3.5 | 6.1 | 0.00 | 0.00 | 0.00 | 23 | 1010.7 |
| 20260507203403 | 80 | 282 | 4.3 | 5.2 | 0.00 | 0.00 | 0.00 | 22 | 1010.7 |
| 20260507202858 | 79 | 166 | 1.7 | 5.2 | 0.00 | 0.00 | 0.00 | 24 | 1010.9 |
| 20260507202355 | 78 | 308 | 4.3 | 6.1 | 0.00 | 0.00 | 0.00 | 22 | 1011.0 |
| 20260507201850 | 78 | 226 | 5.2 | 7.0 | 0.00 | 0.00 | 0.00 | 23 | 1011.0 |
| 20260507201346 | 79 | 264 | 3.5 | 8.7 | 0.00 | 0.00 | 0.00 | 22 | 1011.0 |
| 20260507200843 | 79 | 298 | 6.1 | 8.7 | 0.00 | 0.00 | 0.00 | 22 | 1011.4 |
| 20260507200339 | 79 | 309 | 2.6 | 5.2 | 0.00 | 0.00 | 0.00 | 23 | 1011.1 |
| 20260507195835 | 78 | 261 | 5.2 | 7.0 | 0.00 | 0.00 | 0.00 | 22 | 1011.4 |
| 20260507195332 | 79 | 285 | 3.5 | 7.0 | 0.00 | 0.00 | 0.00 | 23 | 1011.3 |
| 20260507194830 | 78 | 270 | 2.6 | 6.1 | 0.00 | 0.00 | 0.00 | 24 | 1011.4 |
| 20260507194326 | 77 | 174 | 1.7 | 7.8 | 0.00 | 0.00 | 0.00 | 24 | 1011.4 |
| 20260507193823 | 77 | 15 | 2.6 | 5.2 | 0.00 | 0.00 | 0.00 | 24 | 1011.5 |
| 20260507193320 | 77 | 185 | 1.7 | 5.2 | 0.00 | 0.00 | 0.00 | 24 | 1011.6 |
| 20260507192815 | 77 | 256 | 3.5 | 7.8 | 0.00 | 0.00 | 0.00 | 24 | 1011.4 |
| 20260507192313 | 76 | 283 | 5.2 | 9.6 | 0.00 | 0.00 | 0.00 | 23 | 1011.7 |
| 20260507191809 | 77 | 236 | 3.5 | 11.3 | 0.00 | 0.00 | 0.00 | 24 | 1011.9 |
| 20260507191305 | 76 | 248 | 2.6 | 4.3 | 0.00 | 0.00 | 0.00 | 25 | 1012.1 |
| 20260507190802 | 76 | 300 | 4.3 | 8.7 | 0.00 | 0.00 | 0.00 | 24 | 1012.0 |
| 20260507190301 | 76 | 182 | 1.7 | 5.2 | 0.00 | 0.00 | 0.00 | 27 | 1012.0 |
| 20260507185759 | 75 | 294 | 7.0 | 11.3 | 0.00 | 0.00 | 0.00 | 26 | 1012.2 |
| 20260507185255 | 76 | 218 | 4.3 | 9.6 | 0.00 | 0.00 | 0.00 | 25 | 1012.2 |
| 20260507184753 | 75 | 248 | 2.6 | 6.1 | 0.00 | 0.00 | 0.00 | 27 | 1012.5 |
| 20260507184251 | 75 | 269 | 3.5 | 5.2 | 0.00 | 0.00 | 0.00 | 26 | 1012.5 |
| 20260507183747 | 75 | 208 | 4.3 | 7.8 | 0.00 | 0.00 | 0.00 | 25 | 1012.4 |
| 20260507183244 | 75 | 216 | 4.3 | 7.0 | 0.00 | 0.00 | 0.00 | 27 | 1012.6 |
| 20260507182742 | 75 | 244 | 1.7 | 8.7 | 0.00 | 0.00 | 0.00 | 28 | 1012.8 |
| 20260507182236 | 74 | 224 | 2.6 | 7.8 | 0.00 | 0.00 | 0.00 | 31 | 1012.8 |
| 20260507181734 | 73 | 289 | 7.8 | 11.3 | 0.00 | 0.00 | 0.00 | 28 | 1013.0 |
| 20260507181230 | 73 | 218 | 3.5 | 11.3 | 0.00 | 0.00 | 0.00 | 29 | 1013.0 |
| 20260507180726 | 73 | 290 | 5.2 | 7.8 | 0.00 | 0.00 | 0.00 | 31 | 1013.0 |
| 20260507180223 | 72 | 261 | 3.5 | 6.1 | 0.00 | 0.00 | 0.00 | 33 | 1013.1 |
| 20260507175719 | 71 | 238 | 4.3 | 8.7 | 0.00 | 0.00 | 0.00 | 34 | 1013.3 |
| 20260507175216 | 71 | 247 | 2.6 | 7.8 | 0.00 | 0.00 | 0.00 | 34 | 1013.2 |
| 20260507174714 | 71 | 226 | 3.5 | 6.1 | 0.00 | 0.00 | 0.00 | 34 | 1013.3 |
| 20260507174211 | 70 | 260 | 5.2 | 7.8 | 0.00 | 0.00 | 0.00 | 34 | 1013.3 |
| 20260507173709 | 71 | 248 | 3.5 | 7.8 | 0.00 | 0.00 | 0.00 | 34 | 1013.4 |
| 20260507173205 | 72 | 275 | 7.0 | 9.6 | 0.00 | 0.00 | 0.00 | 34 | 1013.5 |
| 20260507172702 | 70 | 278 | 2.6 | 4.3 | 0.00 | 0.00 | 0.00 | 36 | 1013.8 |
| 20260507172159 | 69 | 312 | 4.3 | 7.8 | 0.00 | 0.00 | 0.00 | 37 | 1013.9 |
| 20260507171658 | 69 | 298 | 2.6 | 5.2 | 0.00 | 0.00 | 0.00 | 38 | 1014.1 |
| 20260507171156 | 68 | 260 | 2.6 | 5.2 | 0.00 | 0.00 | 0.00 | 38 | 1014.1 |
| 20260507170653 | 68 | 282 | 3.5 | 7.0 | 0.00 | 0.00 | 0.00 | 38 | 1014.2 |
| 20260507170150 | 68 | 213 | 5.2 | 12.2 | 0.00 | 0.00 | 0.00 | 38 | 1014.4 |
| 20260507165646 | 67 | 302 | 3.5 | 7.0 | 0.00 | 0.00 | 0.00 | 39 | 1014.4 |
| 20260507165142 | 67 | 280 | 3.5 | 7.8 | 0.00 | 0.00 | 0.00 | 39 | 1014.4 |
| 20260507164638 | 67 | 276 | 3.5 | 8.7 | 0.00 | 0.00 | 0.00 | 40 | 1014.7 |
| 20260507164136 | 67 | 291 | 3.5 | 7.8 | 0.00 | 0.00 | 0.00 | 39 | 1014.4 |
| 20260507163633 | 66 | 306 | 5.2 | 7.0 | 0.00 | 0.00 | 0.00 | 40 | 1014.6 |
| 20260507163131 | 66 | 273 | 2.6 | 8.7 | 0.00 | 0.00 | 0.00 | 40 | 1014.6 |
| 20260507162626 | 65 | 208 | 2.6 | 6.1 | 0.00 | 0.00 | 0.00 | 41 | 1014.6 |
| 20260507162123 | 65 | 217 | 2.6 | 8.7 | 0.00 | 0.00 | 0.00 | 42 | 1014.6 |
| 20260507161619 | 65 | 258 | 4.3 | 11.3 | 0.00 | 0.00 | 0.00 | 42 | 1014.7 |
| 20260507161116 | 64 | 223 | 6.1 | 15.6 | 0.00 | 0.00 | 0.00 | 43 | 1014.8 |
| 20260507160612 | 65 | 216 | 1.7 | 2.6 | 0.00 | 0.00 | 0.00 | 45 | 1014.8 |
| 20260507160109 | 64 | 301 | 4.3 | 6.1 | 0.00 | 0.00 | 0.00 | 45 | 1014.8 |
| 20260507155604 | 63 | 204 | 2.6 | 8.7 | 0.00 | 0.00 | 0.00 | 47 | 1014.7 |
| 20260507155101 | 62 | 295 | 6.1 | 8.7 | 0.00 | 0.00 | 0.00 | 48 | 1015.1 |
| 20260507154558 | 61 | 228 | 3.5 | 6.1 | 0.00 | 0.00 | 0.00 | 50 | 1015.0 |
| 20260507154055 | 61 | 248 | 5.2 | 7.8 | 0.00 | 0.00 | 0.00 | 50 | 1015.2 |
| 20260507153552 | 60 | 214 | 2.6 | 5.2 | 0.00 | 0.00 | 0.00 | 52 | 1015.5 |
| 20260507153048 | 60 | 249 | 5.2 | 8.7 | 0.00 | 0.00 | 0.00 | 52 | 1015.4 |
| 20260507152544 | 59 | 250 | 4.3 | 7.0 | 0.00 | 0.00 | 0.00 | 54 | 1015.5 |
| 20260507152040 | 58 | 309 | 4.3 | 7.0 | 0.00 | 0.00 | 0.00 | 55 | 1015.4 |
| 20260507151536 | 58 | 265 | 5.2 | 7.0 | 0.00 | 0.00 | 0.00 | 57 | 1015.6 |
| 20260507151034 | 57 | 240 | 3.5 | 6.1 | 0.00 | 0.00 | 0.00 | 57 | 1015.6 |
| 20260507150530 | 57 | 228 | 2.6 | 7.8 | 0.00 | 0.00 | 0.00 | 59 | 1015.8 |
| 20260507150022 | 56 | 224 | 2.6 | 4.3 | 0.00 | 0.00 | 0.00 | 61 | 1015.6 |
| 20260507145516 | 56 | 279 | 1.7 | 7.8 | 0.00 | 0.00 | 0.00 | 62 | 1015.9 |
| 20260507145015 | 56 | 251 | 2.6 | 4.3 | 0.00 | 0.00 | 0.00 | 62 | 1015.7 |
| 20260507144511 | 55 | 184 | 0.9 | 7.8 | 0.00 | 0.00 | 0.00 | 65 | 1015.9 |
| 20260507144008 | 54 | 277 | 0.9 | 4.3 | 0.00 | 0.00 | 0.00 | 66 | 1015.9 |
| 20260507143505 | 54 | 205 | 2.6 | 7.0 | 0.00 | 0.00 | 0.00 | 67 | 1016.1 |
| 20260507143003 | 54 | 242 | 2.6 | 7.0 | 0.00 | 0.00 | 0.00 | 68 | 1016.0 |
| 20260507142458 | 53 | 252 | 1.7 | 4.3 | 0.00 | 0.00 | 0.00 | 70 | 1016.1 |
| 20260507141955 | 52 | 211 | 1.7 | 8.7 | 0.00 | 0.00 | 0.00 | 72 | 1016.0 |
| 20260507141451 | 51 | 311 | 1.7 | 4.3 | 0.00 | 0.00 | 0.00 | 73 | 1016.1 |
| 20260507140948 | 51 | 278 | 4.3 | 7.0 | 0.00 | 0.00 | 0.00 | 75 | 1016.2 |
| 20260507140444 | 51 | 255 | 1.7 | 5.2 | 0.00 | 0.00 | 0.00 | 76 | 1016.2 |
| 20260507135942 | 50 | 276 | 4.3 | 7.0 | 0.00 | 0.00 | 0.00 | 77 | 1016.1 |
| 20260507135439 | 49 | 230 | 2.6 | 7.8 | 0.00 | 0.00 | 0.00 | 79 | 1016.5 |
| 20260507134936 | 48 | 267 | 4.3 | 8.7 | 0.00 | 0.00 | 0.00 | 80 | 1016.3 |
| 20260507134432 | 48 | 301 | 2.6 | 8.7 | 0.00 | 0.00 | 0.00 | 81 | 1016.7 |
| 20260507133928 | 48 | 272 | 3.5 | 5.2 | 0.00 | 0.00 | 0.00 | 81 | 1016.6 |
| 20260507133424 | 47 | 211 | 1.7 | 5.2 | 0.00 | 0.00 | 0.00 | 82 | 1016.7 |
| 20260507132918 | 46 | 229 | 0.9 | 7.8 | 0.00 | 0.00 | 0.00 | 84 | 1016.9 |
| 20260507132413 | 45 | 225 | 2.6 | 6.1 | 0.00 | 0.00 | 0.00 | 84 | 1016.8 |
| 20260507131910 | 45 | 264 | 4.3 | 9.6 | 0.00 | 0.00 | 0.00 | 85 | 1016.8 |
| 20260507131407 | 45 | 239 | 2.6 | 4.3 | 0.00 | 0.00 | 0.00 | 86 | 1016.9 |
| 20260507130904 | 44 | 259 | 2.6 | 7.0 | 0.00 | 0.00 | 0.00 | 88 | 1016.9 |
| 20260507130401 | 44 | 265 | 3.5 | 5.2 | 0.00 | 0.00 | 0.00 | 89 | 1017.1 |
| 20260507125900 | 43 | 268 | 1.7 | 4.3 | 0.00 | 0.00 | 0.00 | 90 | 1017.1 |
| 20260507125357 | 42 | 235 | 1.7 | 5.2 | 0.00 | 0.00 | 0.00 | 91 | 1016.9 |
| 20260507124855 | 42 | 205 | 1.7 | 1.7 | 0.00 | 0.00 | 0.00 | 91 | 1017.1 |
| 20260507124350 | 41 | 195 | 0.0 | 4.3 | 0.00 | 0.00 | 0.00 | 92 | 1017.1 |
| 20260507123849 | 41 | 216 | 0.9 | 2.6 | 0.00 | 0.00 | 0.00 | 92 | 1017.1 |
| 20260507123346 | 41 | 206 | 1.7 | 2.6 | 0.00 | 0.00 | 0.00 | 93 | 1017.3 |
| 20260507122842 | 40 | 270 | 1.7 | 2.6 | 0.00 | 0.00 | 0.00 | 93 | 1017.2 |
| 20260507122337 | 40 | 253 | 2.6 | 4.3 | 0.00 | 0.00 | 0.00 | 94 | 1016.9 |
| 20260507121834 | 40 | 230 | 1.7 | 6.1 | 0.00 | 0.00 | 0.00 | 95 | 1016.8 |
| 20260507121330 | 40 | 256 | 2.6 | 4.3 | 0.00 | 0.00 | 0.00 | 95 | 1017.1 |
| 20260507120826 | 39 | 266 | 0.9 | 4.3 | 0.00 | 0.00 | 0.00 | 95 | 1016.8 |
| 20260507120323 | 39 | 256 | 0.9 | 4.3 | 0.00 | 0.00 | 0.00 | 96 | 1017.1 |
| 20260507115819 | 39 | 209 | 0.9 | 1.7 | 0.00 | 0.00 | 0.00 | 96 | 1017.1 |
| 20260507115315 | 39 | 212 | 0.9 | 1.7 | 0.00 | 0.00 | 0.00 | 96 | 1016.9 |
| 20260507114811 | 38 | 226 | 0.9 | 2.6 | 0.00 | 0.00 | 0.00 | 96 | 1016.9 |
| 20260507114308 | 38 | 256 | 2.6 | 4.3 | 0.00 | 0.00 | 0.00 | 96 | 1016.9 |
| 20260507113806 | 38 | 246 | 1.7 | 2.6 | 0.00 | 0.00 | 0.00 | 96 | 1016.9 |
| 20260507113302 | 38 | 267 | 0.9 | 1.7 | 0.00 | 0.00 | 0.00 | 96 | 1016.9 |
| 20260507112800 | 37 | 271 | 1.7 | 2.6 | 0.00 | 0.00 | 0.00 | 96 | 1016.8 |
| 20260507112257 | 37 | 195 | 0.9 | 1.7 | 0.00 | 0.00 | 0.00 | 96 | 1016.8 |
| 20260507111755 | 37 | 187 | 0.9 | 1.7 | 0.00 | 0.00 | 0.00 | 96 | 1016.7 |
| 20260507111251 | 37 | 189 | 1.7 | 2.6 | 0.00 | 0.00 | 0.00 | 96 | 1016.8 |
| 20260507110747 | 37 | 187 | 0.9 | 1.7 | 0.00 | 0.00 | 0.00 | 96 | 1017.1 |
| 20260507110244 | 37 | 189 | 0.9 | 0.9 | 0.00 | 0.00 | 0.00 | 96 | 1017.1 |
| 20260507105741 | 38 | 208 | 0.9 | 1.7 | 0.00 | 0.00 | 0.00 | 96 | 1017.3 |
| 20260507105236 | 38 | 208 | 0.9 | 1.7 | 0.00 | 0.00 | 0.00 | 96 | 1017.3 |
| 20260507104734 | 38 | 211 | 1.7 | 1.7 | 0.00 | 0.00 | 0.00 | 96 | 1017.3 |
| 20260507104231 | 38 | 239 | 1.7 | 2.6 | 0.00 | 0.00 | 0.00 | 96 | 1017.4 |
| 20260507103727 | 38 | 180 | 0.9 | 0.9 | 0.00 | 0.00 | 0.00 | 96 | 1017.3 |
| 20260507103223 | 38 | 183 | 0.9 | 1.7 | 0.00 | 0.00 | 0.00 | 96 | 1017.5 |
| 20260507102719 | 38 | 187 | 0.9 | 2.6 | 0.00 | 0.00 | 0.00 | 96 | 1017.4 |
| 20260507102216 | 38 | 181 | 0.9 | 0.9 | 0.00 | 0.00 | 0.00 | 96 | 1017.5 |
| 20260507101712 | 38 | 184 | 1.7 | 1.7 | 0.00 | 0.00 | 0.00 | 96 | 1017.5 |
| 20260507101207 | 38 | 179 | 0.9 | 1.7 | 0.00 | 0.00 | 0.00 | 96 | 1017.8 |
| 20260507100705 | 38 | 179 | 0.9 | 0.9 | 0.00 | 0.00 | 0.00 | 95 | 1017.5 |
| 20260507100203 | 38 | 180 | 0.9 | 1.7 | 0.00 | 0.00 | 0.00 | 95 | 1017.7 |
| 20260507095701 | 38 | 181 | 0.9 | 0.9 | 0.00 | 0.00 | 0.00 | 95 | 1017.6 |
| 20260507095157 | 38 | 181 | 0.9 | 0.9 | 0.00 | 0.00 | 0.00 | 95 | 1017.6 |
| 20260507094654 | 38 | 183 | 0.9 | 0.9 | 0.00 | 0.00 | 0.00 | 95 | 1017.7 |
| 20260507094150 | 38 | 185 | 0.0 | 0.9 | 0.00 | 0.00 | 0.00 | 95 | 1017.8 |
| 20260507093648 | 38 | 188 | 0.9 | 0.9 | 0.00 | 0.00 | 0.00 | 95 | 1017.6 |
| 20260507093147 | 39 | 196 | 0.9 | 1.7 | 0.00 | 0.00 | 0.00 | 95 | 1017.7 |
| 20260507092643 | 39 | 205 | 0.9 | 1.7 | 0.00 | 0.00 | 0.00 | 95 | 1017.9 |
| 20260507092139 | 39 | 239 | 1.7 | 2.6 | 0.00 | 0.00 | 0.00 | 95 | 1017.8 |
| 20260507091636 | 39 | 217 | 1.7 | 2.6 | 0.00 | 0.00 | 0.00 | 95 | 1017.6 |
| 20260507091132 | 39 | 225 | 1.7 | 1.7 | 0.00 | 0.00 | 0.00 | 95 | 1017.8 |
| 20260507090628 | 39 | 180 | 0.9 | 1.7 | 0.00 | 0.00 | 0.00 | 95 | 1017.8 |
| 20260507090126 | 39 | 179 | 0.9 | 1.7 | 0.00 | 0.00 | 0.00 | 95 | 1017.8 |
| 20260507085622 | 39 | 180 | 0.0 | 0.9 | 0.00 | 0.00 | 0.00 | 95 | 1017.9 |
| 20260507085119 | 39 | 181 | 0.9 | 0.9 | 0.00 | 0.00 | 0.00 | 95 | 1018.0 |
| 20260507084616 | 39 | 182 | 0.9 | 1.7 | 0.00 | 0.00 | 0.00 | 94 | 1018.2 |
| 20260507084113 | 39 | 182 | 0.0 | 0.9 | 0.00 | 0.00 | 0.00 | 94 | 1018.0 |
| 20260507083609 | 39 | 183 | 0.0 | 1.7 | 0.00 | 0.00 | 0.00 | 94 | 1018.2 |
| 20260507083107 | 40 | 184 | 0.9 | 1.7 | 0.00 | 0.00 | 0.00 | 94 | 1018.1 |
| 20260507082602 | 40 | 185 | 1.7 | 1.7 | 0.00 | 0.00 | 0.00 | 94 | 1018.3 |
| 20260507082059 | 40 | 186 | 0.9 | 1.7 | 0.00 | 0.00 | 0.00 | 94 | 1018.1 |
| 20260507081555 | 40 | 186 | 0.9 | 0.9 | 0.00 | 0.00 | 0.00 | 93 | 1018.6 |
| 20260507081052 | 40 | 189 | 0.9 | 1.7 | 0.00 | 0.00 | 0.00 | 93 | 1018.5 |
| 20260507080548 | 41 | 195 | 0.9 | 0.9 | 0.00 | 0.00 | 0.00 | 93 | 1018.5 |
| 20260507080045 | 41 | 200 | 1.7 | 2.6 | 0.00 | 0.00 | 0.00 | 93 | 1018.9 |
| 20260507075540 | 41 | 209 | 0.0 | 2.6 | 0.00 | 0.00 | 0.00 | 93 | 1018.9 |
| 20260507075036 | 41 | 220 | 1.7 | 2.6 | 0.00 | 0.00 | 0.00 | 93 | 1018.6 |
| 20260507074533 | 41 | 212 | 2.6 | 2.6 | 0.00 | 0.00 | 0.00 | 92 | 1018.7 |
| 20260507074032 | 41 | 231 | 1.7 | 2.6 | 0.00 | 0.00 | 0.00 | 92 | 1019.1 |
| 20260507073527 | 41 | 220 | 1.7 | 1.7 | 0.00 | 0.00 | 0.00 | 92 | 1019.1 |
| 20260507073024 | 42 | 205 | 0.9 | 2.6 | 0.00 | 0.00 | 0.00 | 91 | 1018.9 |
| 20260507072522 | 42 | 211 | 0.0 | 2.6 | 0.00 | 0.00 | 0.00 | 91 | 1019.0 |
| 20260507072019 | 42 | 239 | 2.6 | 4.3 | 0.00 | 0.00 | 0.00 | 91 | 1019.1 |
| 20260507071516 | 42 | 217 | 2.6 | 2.6 | 0.00 | 0.00 | 0.00 | 90 | 1019.1 |
| 20260507071012 | 42 | 239 | 3.5 | 5.2 | 0.00 | 0.00 | 0.00 | 90 | 1019.1 |
| 20260507070510 | 43 | 237 | 2.6 | 4.3 | 0.00 | 0.00 | 0.00 | 90 | 1019.2 |
| 20260507070010 | 43 | 253 | 1.7 | 2.6 | 0.00 | 0.00 | 0.00 | 90 | 1019.1 |
| 20260507065503 | 43 | 283 | 3.5 | 5.2 | 0.00 | 0.00 | 0.00 | 89 | 1019.3 |
| 20260507065000 | 43 | 253 | 1.7 | 6.1 | 0.00 | 0.00 | 0.00 | 89 | 1019.3 |
| 20260507064458 | 43 | 273 | 4.3 | 6.1 | 0.00 | 0.00 | 0.00 | 89 | 1019.1 |
| 20260507063956 | 44 | 252 | 2.6 | 7.0 | 0.00 | 0.00 | 0.00 | 89 | 1019.2 |
| 20260507063453 | 44 | 270 | 2.6 | 6.1 | 0.00 | 0.00 | 0.00 | 88 | 1019.2 |
| 20260507062950 | 44 | 258 | 2.6 | 5.2 | 0.00 | 0.00 | 0.00 | 88 | 1019.4 |
| 20260507062447 | 44 | 270 | 1.7 | 6.1 | 0.00 | 0.00 | 0.00 | 88 | 1019.4 |
| 20260507061944 | 44 | 277 | 2.6 | 5.2 | 0.00 | 0.00 | 0.00 | 89 | 1019.5 |
| 20260507061442 | 44 | 284 | 3.5 | 4.3 | 0.00 | 0.00 | 0.00 | 89 | 1019.5 |
| 20260507060940 | 44 | 252 | 2.6 | 5.2 | 0.00 | 0.00 | 0.00 | 89 | 1019.4 |
| 20260507060437 | 44 | 272 | 2.6 | 5.2 | 0.00 | 0.00 | 0.00 | 89 | 1019.4 |
| 20260507055933 | 44 | 278 | 1.7 | 2.6 | 0.00 | 0.00 | 0.00 | 89 | 1019.6 |
| 20260507055429 | 44 | 271 | 1.7 | 5.2 | 0.00 | 0.00 | 0.00 | 89 | 1019.7 |
| 20260507054926 | 44 | 241 | 2.6 | 6.1 | 0.00 | 0.00 | 0.00 | 89 | 1019.8 |
| 20260507054422 | 45 | 241 | 4.3 | 6.1 | 0.00 | 0.00 | 0.00 | 89 | 1019.8 |
| 20260507053919 | 45 | 261 | 3.5 | 5.2 | 0.00 | 0.00 | 0.00 | 88 | 1019.9 |
| 20260507053417 | 45 | 265 | 6.1 | 7.0 | 0.00 | 0.00 | 0.00 | 88 | 1020.1 |
| 20260507052915 | 45 | 263 | 3.5 | 5.2 | 0.00 | 0.00 | 0.00 | 88 | 1019.9 |
| 20260507052412 | 45 | 286 | 3.5 | 7.0 | 0.00 | 0.00 | 0.00 | 88 | 1020.0 |
| 20260507051909 | 45 | 278 | 4.3 | 6.1 | 0.00 | 0.00 | 0.00 | 88 | 1020.1 |
| 20260507051407 | 45 | 258 | 4.3 | 7.0 | 0.00 | 0.00 | 0.00 | 87 | 1019.9 |
| 20260507050904 | 46 | 280 | 3.5 | 6.1 | 0.00 | 0.00 | 0.00 | 87 | 1019.8 |
| 20260507050400 | 46 | 279 | 4.3 | 7.0 | 0.00 | 0.00 | 0.00 | 86 | 1019.9 |
| 20260507045857 | 46 | 275 | 3.5 | 5.2 | 0.00 | 0.22 | 0.22 | 86 | 1019.8 |
| 20260507045353 | 46 | 279 | 2.6 | 6.1 | 0.00 | 0.22 | 0.22 | 86 | 1019.6 |
| 20260507044851 | 46 | 243 | 2.6 | 5.2 | 0.00 | 0.22 | 0.22 | 85 | 1019.6 |
| 20260507044347 | 46 | 260 | 3.5 | 6.1 | 0.00 | 0.22 | 0.22 | 85 | 1019.7 |
| 20260507043843 | 47 | 287 | 3.5 | 5.2 | 0.00 | 0.22 | 0.22 | 84 | 1019.5 |
| 20260507043340 | 47 | 287 | 2.6 | 7.0 | 0.00 | 0.22 | 0.22 | 84 | 1019.6 |
| 20260507042836 | 47 | 244 | 2.6 | 6.1 | 0.00 | 0.22 | 0.22 | 83 | 1019.7 |
| 20260507042332 | 47 | 277 | 2.6 | 5.2 | 0.00 | 0.22 | 0.22 | 82 | 1019.5 |
| 20260507041829 | 48 | 265 | 3.5 | 5.2 | 0.00 | 0.22 | 0.22 | 81 | 1019.8 |
| 20260507041325 | 48 | 299 | 2.6 | 5.2 | 0.00 | 0.22 | 0.22 | 80 | 1019.8 |
| 20260507040823 | 48 | 275 | 4.3 | 6.1 | 0.00 | 0.22 | 0.22 | 79 | 1020.0 |
| 20260507040319 | 49 | 265 | 2.6 | 4.3 | 0.00 | 0.22 | 0.22 | 78 | 1019.7 |
| 20260507035815 | 49 | 285 | 3.5 | 5.2 | 0.00 | 0.22 | 0.22 | 78 | 1019.7 |
| 20260507035310 | 49 | 285 | 2.6 | 2.6 | 0.00 | 0.22 | 0.22 | 77 | 1019.6 |
| 20260507034809 | 49 | 299 | 2.6 | 4.3 | 0.00 | 0.22 | 0.22 | 77 | 1019.5 |
| 20260507034305 | 49 | 299 | 1.7 | 5.2 | 0.00 | 0.22 | 0.22 | 76 | 1019.5 |
| 20260507033803 | 49 | 295 | 1.7 | 1.7 | 0.00 | 0.22 | 0.22 | 76 | 1019.6 |
| 20260507033301 | 50 | 269 | 1.7 | 1.7 | 0.00 | 0.22 | 0.22 | 75 | 1019.2 |
| 20260507032757 | 50 | 278 | 1.7 | 2.6 | 0.00 | 0.22 | 0.22 | 75 | 1019.3 |
| 20260507032253 | 50 | 252 | 0.9 | 2.6 | 0.00 | 0.22 | 0.22 | 74 | 1019.3 |
| 20260507031750 | 50 | 257 | 1.7 | 2.6 | 0.00 | 0.22 | 0.22 | 74 | 1019.3 |
| 20260507031247 | 50 | 217 | 0.9 | 2.6 | 0.00 | 0.22 | 0.22 | 74 | 1019.4 |
| 20260507030744 | 50 | 214 | 1.7 | 1.7 | 0.00 | 0.22 | 0.22 | 74 | 1019.3 |
| 20260507030241 | 50 | 216 | 0.9 | 1.7 | 0.00 | 0.22 | 0.22 | 74 | 1019.1 |
| 20260507025738 | 50 | 222 | 0.9 | 1.7 | 0.00 | 0.22 | 0.22 | 73 | 1019.2 |